sensor_id;sensor_type;location;lat;lon;timestamp;P1;durP1;ratioP1;P2;durP2;ratioP2
6862;SDS011;3470;48.738;9.616;2023-08-31T00:00:05;7.07;;;6.00;;
6862;SDS011;3470;48.738;9.616;2023-08-31T00:02:35;6.80;;;5.43;;
6862;SDS011;3470;48.738;9.616;2023-08-31T09:27:03;4.93;;;2.17;;
6862;SDS011;3470;48.738;9.616;2023-08-31T09:29:31;4.97;;;2.55;;
6862;SDS011;3470;48.738;9.616;2023-08-31T09:31:56;4.45;;;2.60;;
6862;SDS011;3470;48.738;9.616;2023-08-31T09:34:22;3.10;;;2.00;;
6862;SDS011;3470;48.738;9.616;2023-08-31T09:37:03;3.17;;;2.00;;
6862;SDS011;3470;48.738;9.616;2023-08-31T09:39:35;4.50;;;2.20;;
6862;SDS011;3470;48.738;9.616;2023-08-31T09:42:01;3.53;;;1.90;;
6862;SDS011;3470;48.738;9.616;2023-08-31T09:44:28;3.55;;;1.90;;
6862;SDS011;3470;48.738;9.616;2023-08-31T09:46:54;5.20;;;2.17;;
6862;SDS011;3470;48.738;9.616;2023-08-31T09:49:20;4.47;;;2.22;;
6862;SDS011;3470;48.738;9.616;2023-08-31T09:51:48;5.10;;;2.08;;
6862;SDS011;3470;48.738;9.616;2023-08-31T09:54:15;3.95;;;2.30;;
6862;SDS011;3470;48.738;9.616;2023-08-31T09:56:42;4.57;;;2.38;;
6862;SDS011;3470;48.738;9.616;2023-08-31T09:59:12;3.40;;;2.15;;
6862;SDS011;3470;48.738;9.616;2023-08-31T10:01:39;4.28;;;2.00;;
6862;SDS011;3470;48.738;9.616;2023-08-31T10:04:06;5.82;;;2.50;;
6862;SDS011;3470;48.738;9.616;2023-08-31T10:06:34;4.43;;;2.13;;
6862;SDS011;3470;48.738;9.616;2023-08-31T10:09:01;3.58;;;2.00;;
6862;SDS011;3470;48.738;9.616;2023-08-31T10:11:28;2.63;;;1.70;;
6862;SDS011;3470;48.738;9.616;2023-08-31T10:13:54;4.57;;;2.30;;
6862;SDS011;3470;48.738;9.616;2023-08-31T10:16:20;5.30;;;1.88;;
6862;SDS011;3470;48.738;9.616;2023-08-31T10:18:46;3.72;;;1.90;;
6862;SDS011;3470;48.738;9.616;2023-08-31T10:21:16;3.35;;;2.10;;
6862;SDS011;3470;48.738;9.616;2023-08-31T10:23:46;3.22;;;1.95;;
6862;SDS011;3470;48.738;9.616;2023-08-31T10:26:22;3.03;;;1.90;;
6862;SDS011;3470;48.738;9.616;2023-08-31T10:28:52;4.30;;;2.38;;
6862;SDS011;3470;48.738;9.616;2023-08-31T10:31:18;5.15;;;1.98;;
6862;SDS011;3470;48.738;9.616;2023-08-31T10:33:54;3.13;;;2.13;;
6862;SDS011;3470;48.738;9.616;2023-08-31T10:36:34;3.47;;;2.20;;
6862;SDS011;3470;48.738;9.616;2023-08-31T10:41:38;4.38;;;2.33;;
6862;SDS011;3470;48.738;9.616;2023-08-31T10:44:17;4.10;;;2.13;;
6862;SDS011;3470;48.738;9.616;2023-08-31T10:46:44;3.83;;;1.90;;
6862;SDS011;3470;48.738;9.616;2023-08-31T10:51:39;4.18;;;2.33;;
6862;SDS011;3470;48.738;9.616;2023-08-31T10:59:19;3.35;;;2.08;;
6862;SDS011;3470;48.738;9.616;2023-08-31T11:01:58;3.15;;;2.47;;
6862;SDS011;3470;48.738;9.616;2023-08-31T11:04:26;3.45;;;2.28;;
6862;SDS011;3470;48.738;9.616;2023-08-31T11:07:11;3.80;;;2.33;;
6862;SDS011;3470;48.738;9.616;2023-08-31T11:10:33;3.30;;;2.20;;
6862;SDS011;3470;48.738;9.616;2023-08-31T11:12:54;4.63;;;2.17;;
6862;SDS011;3470;48.738;9.616;2023-08-31T11:15:23;2.85;;;2.20;;
6862;SDS011;3470;48.738;9.616;2023-08-31T11:17:50;4.97;;;2.20;;
6862;SDS011;3470;48.738;9.616;2023-08-31T11:20:17;2.78;;;2.00;;
